sensor_id;sensor_type;location;lat;lon;timestamp;temperature;humidity
24678;DHT22;12800;53.094;8.778;2022-08-21T00:01:03;19.80;62.90
24678;DHT22;12800;53.094;8.778;2022-08-21T00:03:29;19.80;62.90
24678;DHT22;12800;53.094;8.778;2022-08-21T00:05:55;19.80;63.00
24678;DHT22;12800;53.094;8.778;2022-08-21T00:08:21;19.80;63.10
24678;DHT22;12800;53.094;8.778;2022-08-21T00:10:47;19.70;63.10
24678;DHT22;12800;53.094;8.778;2022-08-21T00:13:13;19.70;63.20
24678;DHT22;12800;53.094;8.778;2022-08-21T00:15:40;19.70;63.40
24678;DHT22;12800;53.094;8.778;2022-08-21T00:18:07;19.60;63.60
24678;DHT22;12800;53.094;8.778;2022-08-21T00:20:34;19.70;63.70
24678;DHT22;12800;53.094;8.778;2022-08-21T00:23:01;19.60;63.70
24678;DHT22;12800;53.094;8.778;2022-08-21T00:25:27;19.60;63.90
24678;DHT22;12800;53.094;8.778;2022-08-21T00:27:54;19.60;63.90
24678;DHT22;12800;53.094;8.778;2022-08-21T00:30:22;19.60;64.00
24678;DHT22;12800;53.094;8.778;2022-08-21T00:32:48;19.60;64.10
24678;DHT22;12800;53.094;8.778;2022-08-21T00:35:17;19.60;64.10
24678;DHT22;12800;53.094;8.778;2022-08-21T00:37:44;19.60;64.10
24678;DHT22;12800;53.094;8.778;2022-08-21T00:40:15;19.50;64.20
24678;DHT22;12800;53.094;8.778;2022-08-21T00:42:42;19.50;64.30
24678;DHT22;12800;53.094;8.778;2022-08-21T00:45:09;19.50;64.30
24678;DHT22;12800;53.094;8.778;2022-08-21T00:47:35;19.40;64.30
24678;DHT22;12800;53.094;8.778;2022-08-21T00:50:01;19.40;64.40
24678;DHT22;12800;53.094;8.778;2022-08-21T00:52:30;19.40;64.60
24678;DHT22;12800;53.094;8.778;2022-08-21T00:54:58;19.40;64.60
24678;DHT22;12800;53.094;8.778;2022-08-21T00:57:29;19.40;64.80
24678;DHT22;12800;53.094;8.778;2022-08-21T00:59:58;19.30;64.80
24678;DHT22;12800;53.094;8.778;2022-08-21T01:02:25;19.30;64.90
24678;DHT22;12800;53.094;8.778;2022-08-21T01:04:51;19.30;65.00
24678;DHT22;12800;53.094;8.778;2022-08-21T01:07:17;19.30;65.00
24678;DHT22;12800;53.094;8.778;2022-08-21T01:09:46;19.20;65.00
24678;DHT22;12800;53.094;8.778;2022-08-21T01:12:13;19.20;65.00
24678;DHT22;12800;53.094;8.778;2022-08-21T01:14:40;19.20;65.10
24678;DHT22;12800;53.094;8.778;2022-08-21T01:17:08;19.20;65.00
24678;DHT22;12800;53.094;8.778;2022-08-21T01:19:35;19.20;64.90
24678;DHT22;12800;53.094;8.778;2022-08-21T01:22:00;19.20;65.00
24678;DHT22;12800;53.094;8.778;2022-08-21T01:24:26;19.30;64.90
24678;DHT22;12800;53.094;8.778;2022-08-21T01:26:52;19.30;64.70
24678;DHT22;12800;53.094;8.778;2022-08-21T01:29:38;19.40;64.40
24678;DHT22;12800;53.094;8.778;2022-08-21T01:32:09;19.40;64.20
24678;DHT22;12800;53.094;8.778;2022-08-21T01:34:37;19.40;63.90
24678;DHT22;12800;53.094;8.778;2022-08-21T01:37:03;19.50;63.90
24678;DHT22;12800;53.094;8.778;2022-08-21T01:39:29;19.50;63.70
24678;DHT22;12800;53.094;8.778;2022-08-21T01:41:54;19.50;63.70
24678;DHT22;12800;53.094;8.778;2022-08-21T01:44:22;19.60;63.70
24678;DHT22;12800;53.094;8.778;2022-08-21T01:46:48;19.60;63.60
24678;DHT22;12800;53.094;8.778;2022-08-21T01:49:14;19.60;63.60
24678;DHT22;12800;53.094;8.778;2022-08-21T01:51:41;19.50;63.40
24678;DHT22;12800;53.094;8.778;2022-08-21T01:54:07;19.60;63.50
24678;DHT22;12800;53.094;8.778;2022-08-21T01:56:41;19.60;63.60
24678;DHT22;12800;53.094;8.778;2022-08-21T01:59:08;19.60;63.60
24678;DHT22;12800;53.094;8.778;2022-08-21T02:01:34;19.60;63.60
24678;DHT22;12800;53.094;8.778;2022-08-21T02:04:00;19.60;63.60
24678;DHT22;12800;53.094;8.778;2022-08-21T02:06:26;19.60;63.60
24678;DHT22;12800;53.094;8.778;2022-08-21T02:08:52;19.60;63.60
24678;DHT22;12800;53.094;8.778;2022-08-21T02:11:18;19.50;64.40
24678;DHT22;12800;53.094;8.778;2022-08-21T02:13:44;19.50;63.60
24678;DHT22;12800;53.094;8.778;2022-08-21T02:16:10;19.50;63.70
24678;DHT22;12800;53.094;8.778;2022-08-21T02:18:36;19.50;63.60
24678;DHT22;12800;53.094;8.778;2022-08-21T02:21:03;19.50;63.70
24678;DHT22;12800;53.094;8.778;2022-08-21T02:23:29;19.50;63.80
24678;DHT22;12800;53.094;8.778;2022-08-21T02:25:57;19.50;63.80
24678;DHT22;12800;53.094;8.778;2022-08-21T02:28:23;19.50;63.80
24678;DHT22;12800;53.094;8.778;2022-08-21T02:30:49;19.50;63.80
24678;DHT22;12800;53.094;8.778;2022-08-21T02:33:16;19.50;63.90
24678;DHT22;12800;53.094;8.778;2022-08-21T02:35:43;19.50;64.00
24678;DHT22;12800;53.094;8.778;2022-08-21T02:38:13;19.40;64.00
24678;DHT22;12800;53.094;8.778;2022-08-21T02:40:41;19.40;64.00
24678;DHT22;12800;53.094;8.778;2022-08-21T02:43:07;19.40;64.10
24678;DHT22;12800;53.094;8.778;2022-08-21T02:45:35;19.40;64.00
24678;DHT22;12800;53.094;8.778;2022-08-21T02:48:04;19.40;64.10
24678;DHT22;12800;53.094;8.778;2022-08-21T02:50:37;19.30;64.10
24678;DHT22;12800;53.094;8.778;2022-08-21T02:53:04;19.30;64.10
24678;DHT22;12800;53.094;8.778;2022-08-21T02:55:31;19.30;64.20
24678;DHT22;12800;53.094;8.778;2022-08-21T02:57:58;19.30;64.30
24678;DHT22;12800;53.094;8.778;2022-08-21T03:00:26;19.30;64.30
24678;DHT22;12800;53.094;8.778;2022-08-21T03:02:53;19.30;64.40
24678;DHT22;12800;53.094;8.778;2022-08-21T03:05:22;19.30;64.40
24678;DHT22;12800;53.094;8.778;2022-08-21T03:07:49;19.30;64.40
24678;DHT22;12800;53.094;8.778;2022-08-21T03:10:15;19.30;64.40
24678;DHT22;12800;53.094;8.778;2022-08-21T03:12:42;19.30;64.40
24678;DHT22;12800;53.094;8.778;2022-08-21T03:15:15;19.30;64.40
24678;DHT22;12800;53.094;8.778;2022-08-21T03:17:40;19.30;64.50
24678;DHT22;12800;53.094;8.778;2022-08-21T03:20:07;19.40;64.60
24678;DHT22;12800;53.094;8.778;2022-08-21T03:22:33;19.40;64.50
24678;DHT22;12800;53.094;8.778;2022-08-21T03:24:59;19.40;64.40
24678;DHT22;12800;53.094;8.778;2022-08-21T03:27:26;19.40;64.40
24678;DHT22;12800;53.094;8.778;2022-08-21T03:29:53;19.40;64.40
24678;DHT22;12800;53.094;8.778;2022-08-21T03:32:19;19.50;64.40
24678;DHT22;12800;53.094;8.778;2022-08-21T03:34:45;19.40;64.40
24678;DHT22;12800;53.094;8.778;2022-08-21T03:37:11;19.40;64.40
24678;DHT22;12800;53.094;8.778;2022-08-21T03:39:37;19.40;64.50
24678;DHT22;12800;53.094;8.778;2022-08-21T03:42:03;19.40;64.50
24678;DHT22;12800;53.094;8.778;2022-08-21T03:44:30;19.40;64.60
24678;DHT22;12800;53.094;8.778;2022-08-21T03:46:57;19.40;64.70
24678;DHT22;12800;53.094;8.778;2022-08-21T03:49:24;19.30;64.80
24678;DHT22;12800;53.094;8.778;2022-08-21T03:51:50;19.30;64.90
24678;DHT22;12800;53.094;8.778;2022-08-21T03:54:15;19.30;64.90
24678;DHT22;12800;53.094;8.778;2022-08-21T03:56:41;19.30;64.90
24678;DHT22;12800;53.094;8.778;2022-08-21T03:59:07;19.30;65.00
24678;DHT22;12800;53.094;8.778;2022-08-21T04:01:33;19.30;65.10
24678;DHT22;12800;53.094;8.778;2022-08-21T04:03:58;19.20;65.00
24678;DHT22;12800;53.094;8.778;2022-08-21T04:06:25;19.20;66.00
24678;DHT22;12800;53.094;8.778;2022-08-21T04:08:52;19.20;65.20
24678;DHT22;12800;53.094;8.778;2022-08-21T04:11:18;19.10;65.30
24678;DHT22;12800;53.094;8.778;2022-08-21T04:13:44;19.10;65.40
24678;DHT22;12800;53.094;8.778;2022-08-21T04:16:10;19.00;65.50
24678;DHT22;12800;53.094;8.778;2022-08-21T04:18:35;19.10;65.40
24678;DHT22;12800;53.094;8.778;2022-08-21T04:21:02;19.00;65.40
24678;DHT22;12800;53.094;8.778;2022-08-21T04:23:28;19.00;65.60
24678;DHT22;12800;53.094;8.778;2022-08-21T04:25:55;19.00;66.50
24678;DHT22;12800;53.094;8.778;2022-08-21T04:28:26;19.00;65.80
24678;DHT22;12800;53.094;8.778;2022-08-21T04:30:52;18.90;65.90
24678;DHT22;12800;53.094;8.778;2022-08-21T04:33:18;18.90;66.10
24678;DHT22;12800;53.094;8.778;2022-08-21T04:35:44;18.90;66.20
24678;DHT22;12800;53.094;8.778;2022-08-21T04:38:10;18.90;66.30
24678;DHT22;12800;53.094;8.778;2022-08-21T04:40:36;18.90;67.10
24678;DHT22;12800;53.094;8.778;2022-08-21T04:43:05;18.90;66.40
24678;DHT22;12800;53.094;8.778;2022-08-21T04:45:33;18.90;66.50
24678;DHT22;12800;53.094;8.778;2022-08-21T04:48:02;18.90;66.60
24678;DHT22;12800;53.094;8.778;2022-08-21T04:52:56;18.90;66.70
24678;DHT22;12800;53.094;8.778;2022-08-21T04:55:22;18.90;66.80
24678;DHT22;12800;53.094;8.778;2022-08-21T04:57:49;18.90;66.90
24678;DHT22;12800;53.094;8.778;2022-08-21T05:00:19;18.90;67.00
24678;DHT22;12800;53.094;8.778;2022-08-21T05:02:45;18.80;66.90
24678;DHT22;12800;53.094;8.778;2022-08-21T05:05:13;18.80;67.00
24678;DHT22;12800;53.094;8.778;2022-08-21T05:07:39;18.80;67.00
24678;DHT22;12800;53.094;8.778;2022-08-21T05:10:05;18.80;67.10
24678;DHT22;12800;53.094;8.778;2022-08-21T05:12:33;18.70;67.10
24678;DHT22;12800;53.094;8.778;2022-08-21T05:14:59;18.80;67.10
24678;DHT22;12800;53.094;8.778;2022-08-21T05:17:25;18.70;67.10
24678;DHT22;12800;53.094;8.778;2022-08-21T05:19:51;18.70;67.20
24678;DHT22;12800;53.094;8.778;2022-08-21T05:22:23;18.70;67.30
24678;DHT22;12800;53.094;8.778;2022-08-21T05:24:50;18.70;67.40
24678;DHT22;12800;53.094;8.778;2022-08-21T05:27:16;18.70;67.50
24678;DHT22;12800;53.094;8.778;2022-08-21T05:29:42;18.70;67.70
24678;DHT22;12800;53.094;8.778;2022-08-21T05:32:13;18.70;67.70
24678;DHT22;12800;53.094;8.778;2022-08-21T05:34:38;18.60;67.80
24678;DHT22;12800;53.094;8.778;2022-08-21T05:37:04;18.60;67.90
24678;DHT22;12800;53.094;8.778;2022-08-21T05:39:30;18.60;68.00
24678;DHT22;12800;53.094;8.778;2022-08-21T05:41:56;18.60;68.10
24678;DHT22;12800;53.094;8.778;2022-08-21T05:44:22;18.60;68.20
24678;DHT22;12800;53.094;8.778;2022-08-21T05:46:47;18.70;68.40
24678;DHT22;12800;53.094;8.778;2022-08-21T05:49:13;18.60;68.30
24678;DHT22;12800;53.094;8.778;2022-08-21T05:51:42;18.70;68.50
24678;DHT22;12800;53.094;8.778;2022-08-21T05:54:07;18.70;68.60
24678;DHT22;12800;53.094;8.778;2022-08-21T05:56:33;18.70;68.70
24678;DHT22;12800;53.094;8.778;2022-08-21T05:58:59;18.70;68.80
24678;DHT22;12800;53.094;8.778;2022-08-21T06:01:24;18.70;68.90
24678;DHT22;12800;53.094;8.778;2022-08-21T06:03:50;18.70;69.00
24678;DHT22;12800;53.094;8.778;2022-08-21T06:06:16;18.70;69.00
24678;DHT22;12800;53.094;8.778;2022-08-21T06:08:42;18.80;69.00
24678;DHT22;12800;53.094;8.778;2022-08-21T06:11:08;18.80;69.00
24678;DHT22;12800;53.094;8.778;2022-08-21T06:13:35;18.80;68.90
24678;DHT22;12800;53.094;8.778;2022-08-21T06:16:12;18.80;68.90
24678;DHT22;12800;53.094;8.778;2022-08-21T06:18:38;18.80;69.00
24678;DHT22;12800;53.094;8.778;2022-08-21T06:21:05;18.90;69.10
24678;DHT22;12800;53.094;8.778;2022-08-21T06:23:31;18.80;69.00
24678;DHT22;12800;53.094;8.778;2022-08-21T06:25:57;18.90;69.00
24678;DHT22;12800;53.094;8.778;2022-08-21T06:28:23;18.90;69.10
24678;DHT22;12800;53.094;8.778;2022-08-21T06:30:49;18.90;69.30
24678;DHT22;12800;53.094;8.778;2022-08-21T06:33:15;19.00;69.40
24678;DHT22;12800;53.094;8.778;2022-08-21T06:35:40;19.00;69.30
24678;DHT22;12800;53.094;8.778;2022-08-21T06:38:06;19.00;69.30
24678;DHT22;12800;53.094;8.778;2022-08-21T06:40:32;19.00;69.40
24678;DHT22;12800;53.094;8.778;2022-08-21T06:43:04;19.10;69.50
24678;DHT22;12800;53.094;8.778;2022-08-21T06:45:30;19.10;69.50
24678;DHT22;12800;53.094;8.778;2022-08-21T06:47:56;19.10;69.50
24678;DHT22;12800;53.094;8.778;2022-08-21T06:50:21;19.20;69.60
24678;DHT22;12800;53.094;8.778;2022-08-21T06:52:47;19.20;69.60
24678;DHT22;12800;53.094;8.778;2022-08-21T06:55:13;19.20;69.70
24678;DHT22;12800;53.094;8.778;2022-08-21T06:57:38;19.30;69.80
24678;DHT22;12800;53.094;8.778;2022-08-21T07:00:05;19.30;69.90
24678;DHT22;12800;53.094;8.778;2022-08-21T07:02:31;19.40;69.90
24678;DHT22;12800;53.094;8.778;2022-08-21T07:04:58;19.40;70.00
24678;DHT22;12800;53.094;8.778;2022-08-21T07:07:24;19.50;70.00
24678;DHT22;12800;53.094;8.778;2022-08-21T07:09:50;19.50;70.10
24678;DHT22;12800;53.094;8.778;2022-08-21T07:12:15;19.60;70.10
24678;DHT22;12800;53.094;8.778;2022-08-21T07:14:41;19.60;70.00
24678;DHT22;12800;53.094;8.778;2022-08-21T07:17:08;19.70;70.10
24678;DHT22;12800;53.094;8.778;2022-08-21T07:19:33;19.70;70.10
24678;DHT22;12800;53.094;8.778;2022-08-21T07:22:01;19.70;70.10
24678;DHT22;12800;53.094;8.778;2022-08-21T07:24:27;19.80;70.20
24678;DHT22;12800;53.094;8.778;2022-08-21T07:26:53;19.90;70.40
24678;DHT22;12800;53.094;8.778;2022-08-21T07:29:19;19.90;70.40
24678;DHT22;12800;53.094;8.778;2022-08-21T07:31:45;20.00;70.40
24678;DHT22;12800;53.094;8.778;2022-08-21T07:34:13;20.00;70.30
24678;DHT22;12800;53.094;8.778;2022-08-21T07:36:39;20.10;70.40
24678;DHT22;12800;53.094;8.778;2022-08-21T07:39:05;20.20;70.20
24678;DHT22;12800;53.094;8.778;2022-08-21T07:41:31;20.20;70.20
24678;DHT22;12800;53.094;8.778;2022-08-21T07:43:58;20.30;70.20
24678;DHT22;12800;53.094;8.778;2022-08-21T07:46:24;20.40;70.20
24678;DHT22;12800;53.094;8.778;2022-08-21T07:48:51;20.40;70.10
24678;DHT22;12800;53.094;8.778;2022-08-21T07:51:18;20.50;70.10
24678;DHT22;12800;53.094;8.778;2022-08-21T07:53:51;20.50;69.90
24678;DHT22;12800;53.094;8.778;2022-08-21T07:56:18;20.60;69.80
24678;DHT22;12800;53.094;8.778;2022-08-21T07:58:43;20.60;69.50
24678;DHT22;12800;53.094;8.778;2022-08-21T08:01:09;20.70;69.30
24678;DHT22;12800;53.094;8.778;2022-08-21T08:03:36;20.80;69.00
24678;DHT22;12800;53.094;8.778;2022-08-21T08:06:02;20.90;68.80
24678;DHT22;12800;53.094;8.778;2022-08-21T08:08:30;20.90;68.10
24678;DHT22;12800;53.094;8.778;2022-08-21T08:10:57;20.90;67.80
24678;DHT22;12800;53.094;8.778;2022-08-21T08:13:24;21.00;67.70
24678;DHT22;12800;53.094;8.778;2022-08-21T08:15:49;21.00;67.60
24678;DHT22;12800;53.094;8.778;2022-08-21T08:18:15;21.10;67.40
24678;DHT22;12800;53.094;8.778;2022-08-21T08:20:41;21.10;67.00
24678;DHT22;12800;53.094;8.778;2022-08-21T08:23:10;21.10;66.80
24678;DHT22;12800;53.094;8.778;2022-08-21T08:25:35;21.20;66.40
24678;DHT22;12800;53.094;8.778;2022-08-21T08:28:01;21.20;65.40
24678;DHT22;12800;53.094;8.778;2022-08-21T08:30:27;21.20;65.00
24678;DHT22;12800;53.094;8.778;2022-08-21T08:32:52;21.20;64.60
24678;DHT22;12800;53.094;8.778;2022-08-21T08:35:18;21.30;64.40
24678;DHT22;12800;53.094;8.778;2022-08-21T08:37:45;21.30;64.00
24678;DHT22;12800;53.094;8.778;2022-08-21T08:40:22;21.40;63.70
24678;DHT22;12800;53.094;8.778;2022-08-21T08:42:49;21.50;63.70
24678;DHT22;12800;53.094;8.778;2022-08-21T08:45:20;21.60;63.70
24678;DHT22;12800;53.094;8.778;2022-08-21T08:47:52;21.60;63.50
24678;DHT22;12800;53.094;8.778;2022-08-21T08:50:45;21.60;62.60
24678;DHT22;12800;53.094;8.778;2022-08-21T08:53:22;21.70;61.50
24678;DHT22;12800;53.094;8.778;2022-08-21T08:55:48;21.70;61.20
24678;DHT22;12800;53.094;8.778;2022-08-21T08:58:26;21.80;60.90
24678;DHT22;12800;53.094;8.778;2022-08-21T09:00:53;21.80;60.60
24678;DHT22;12800;53.094;8.778;2022-08-21T09:03:22;21.80;60.50
24678;DHT22;12800;53.094;8.778;2022-08-21T09:13:43;22.00;60.60
24678;DHT22;12800;53.094;8.778;2022-08-21T09:21:42;22.10;60.70
24678;DHT22;12800;53.094;8.778;2022-08-21T09:29:30;22.40;60.10
24678;DHT22;12800;53.094;8.778;2022-08-21T09:31:56;22.50;60.00
24678;DHT22;12800;53.094;8.778;2022-08-21T09:34:28;22.70;59.90
24678;DHT22;12800;53.094;8.778;2022-08-21T09:36:56;22.80;59.30
24678;DHT22;12800;53.094;8.778;2022-08-21T09:39:29;22.80;58.90
24678;DHT22;12800;53.094;8.778;2022-08-21T09:41:58;22.90;58.70
24678;DHT22;12800;53.094;8.778;2022-08-21T09:44:30;22.90;58.60
24678;DHT22;12800;53.094;8.778;2022-08-21T09:46:56;22.90;59.00
24678;DHT22;12800;53.094;8.778;2022-08-21T09:49:30;22.90;58.50
24678;DHT22;12800;53.094;8.778;2022-08-21T09:51:57;22.80;58.10
24678;DHT22;12800;53.094;8.778;2022-08-21T09:54:31;22.80;58.00
24678;DHT22;12800;53.094;8.778;2022-08-21T09:57:01;22.80;57.90
24678;DHT22;12800;53.094;8.778;2022-08-21T09:59:48;22.80;58.00
24678;DHT22;12800;53.094;8.778;2022-08-21T10:02:30;22.70;58.00
24678;DHT22;12800;53.094;8.778;2022-08-21T10:05:20;22.70;58.00
24678;DHT22;12800;53.094;8.778;2022-08-21T10:07:47;22.70;58.10
24678;DHT22;12800;53.094;8.778;2022-08-21T10:10:19;22.70;58.00
24678;DHT22;12800;53.094;8.778;2022-08-21T10:20:45;22.80;57.90
24678;DHT22;12800;53.094;8.778;2022-08-21T10:29:02;23.00;57.60
24678;DHT22;12800;53.094;8.778;2022-08-21T10:34:33;23.10;57.10
24678;DHT22;12800;53.094;8.778;2022-08-21T10:39:36;23.20;57.00
24678;DHT22;12800;53.094;8.778;2022-08-21T10:48:53;23.40;56.40
24678;DHT22;12800;53.094;8.778;2022-08-21T10:51:47;23.60;56.30
24678;DHT22;12800;53.094;8.778;2022-08-21T10:56:53;23.70;55.00
24678;DHT22;12800;53.094;8.778;2022-08-21T10:59:47;23.80;54.60
24678;DHT22;12800;53.094;8.778;2022-08-21T11:02:21;23.90;53.70
24678;DHT22;12800;53.094;8.778;2022-08-21T11:05:07;23.90;53.80
24678;DHT22;12800;53.094;8.778;2022-08-21T11:10:27;23.90;54.10
24678;DHT22;12800;53.094;8.778;2022-08-21T11:13:05;23.90;54.30
24678;DHT22;12800;53.094;8.778;2022-08-21T11:18:34;24.00;54.20
24678;DHT22;12800;53.094;8.778;2022-08-21T11:26:47;24.00;54.10
24678;DHT22;12800;53.094;8.778;2022-08-21T11:29:27;24.00;53.40
24678;DHT22;12800;53.094;8.778;2022-08-21T11:37:28;24.20;52.50
24678;DHT22;12800;53.094;8.778;2022-08-21T11:40:16;24.30;52.60
24678;DHT22;12800;53.094;8.778;2022-08-21T11:42:54;24.50;53.10
24678;DHT22;12800;53.094;8.778;2022-08-21T11:45:32;24.70;53.10
24678;DHT22;12800;53.094;8.778;2022-08-21T11:50:50;25.00;51.80
24678;DHT22;12800;53.094;8.778;2022-08-21T11:56:18;25.20;51.10
24678;DHT22;12800;53.094;8.778;2022-08-21T11:58:49;25.20;50.80
24678;DHT22;12800;53.094;8.778;2022-08-21T12:01:20;25.30;50.50
24678;DHT22;12800;53.094;8.778;2022-08-21T12:04:08;25.40;49.90
24678;DHT22;12800;53.094;8.778;2022-08-21T12:06:39;25.40;49.70
24678;DHT22;12800;53.094;8.778;2022-08-21T12:09:27;25.50;49.80
24678;DHT22;12800;53.094;8.778;2022-08-21T12:12:30;25.50;50.20
24678;DHT22;12800;53.094;8.778;2022-08-21T12:18:23;25.60;50.40
24678;DHT22;12800;53.094;8.778;2022-08-21T12:23:59;25.70;50.00
24678;DHT22;12800;53.094;8.778;2022-08-21T12:26:35;25.70;50.00
24678;DHT22;12800;53.094;8.778;2022-08-21T12:29:12;25.80;49.90
24678;DHT22;12800;53.094;8.778;2022-08-21T12:34:57;25.80;49.60
24678;DHT22;12800;53.094;8.778;2022-08-21T12:40:28;25.90;49.50
24678;DHT22;12800;53.094;8.778;2022-08-21T12:42:53;25.90;49.40
24678;DHT22;12800;53.094;8.778;2022-08-21T12:45:31;25.80;49.30
24678;DHT22;12800;53.094;8.778;2022-08-21T12:48:07;25.80;49.30
24678;DHT22;12800;53.094;8.778;2022-08-21T12:50:45;25.80;49.20
24678;DHT22;12800;53.094;8.778;2022-08-21T12:56:01;25.90;49.30
24678;DHT22;12800;53.094;8.778;2022-08-21T12:58:30;25.90;49.20
24678;DHT22;12800;53.094;8.778;2022-08-21T13:01:08;25.90;49.10
24678;DHT22;12800;53.094;8.778;2022-08-21T13:03:37;25.90;48.60
24678;DHT22;12800;53.094;8.778;2022-08-21T13:06:04;25.90;48.60
24678;DHT22;12800;53.094;8.778;2022-08-21T13:08:33;26.00;48.90
24678;DHT22;12800;53.094;8.778;2022-08-21T13:11:03;26.20;49.00
24678;DHT22;12800;53.094;8.778;2022-08-21T13:13:31;26.30;49.10
24678;DHT22;12800;53.094;8.778;2022-08-21T13:16:04;26.40;48.90
24678;DHT22;12800;53.094;8.778;2022-08-21T13:18:33;26.40;48.30
24678;DHT22;12800;53.094;8.778;2022-08-21T13:21:13;26.30;48.20
24678;DHT22;12800;53.094;8.778;2022-08-21T13:23:40;26.20;48.60
24678;DHT22;12800;53.094;8.778;2022-08-21T13:26:19;26.30;48.50
24678;DHT22;12800;53.094;8.778;2022-08-21T13:28:46;26.40;48.70
24678;DHT22;12800;53.094;8.778;2022-08-21T13:31:21;26.40;47.80
24678;DHT22;12800;53.094;8.778;2022-08-21T13:33:48;26.60;47.50
24678;DHT22;12800;53.094;8.778;2022-08-21T13:36:19;26.60;47.10
24678;DHT22;12800;53.094;8.778;2022-08-21T13:38:46;26.80;47.00
24678;DHT22;12800;53.094;8.778;2022-08-21T13:41:32;26.90;46.80
24678;DHT22;12800;53.094;8.778;2022-08-21T13:44:23;27.00;46.90
24678;DHT22;12800;53.094;8.778;2022-08-21T13:46:52;27.10;47.10
24678;DHT22;12800;53.094;8.778;2022-08-21T13:49:31;27.20;46.80
24678;DHT22;12800;53.094;8.778;2022-08-21T13:51:58;27.40;46.90
24678;DHT22;12800;53.094;8.778;2022-08-21T13:54:33;27.50;46.50
24678;DHT22;12800;53.094;8.778;2022-08-21T13:56:59;27.30;46.00
24678;DHT22;12800;53.094;8.778;2022-08-21T13:59:35;27.30;46.10
24678;DHT22;12800;53.094;8.778;2022-08-21T14:02:10;27.20;46.40
24678;DHT22;12800;53.094;8.778;2022-08-21T14:04:58;27.20;46.30
24678;DHT22;12800;53.094;8.778;2022-08-21T14:07:33;27.20;46.60
24678;DHT22;12800;53.094;8.778;2022-08-21T14:10:13;27.10;46.40
24678;DHT22;12800;53.094;8.778;2022-08-21T14:12:45;27.00;46.20
24678;DHT22;12800;53.094;8.778;2022-08-21T14:15:18;26.80;46.40
24678;DHT22;12800;53.094;8.778;2022-08-21T14:17:44;26.90;46.90
24678;DHT22;12800;53.094;8.778;2022-08-21T14:22:55;27.00;46.50
24678;DHT22;12800;53.094;8.778;2022-08-21T14:30:27;27.30;46.40
24678;DHT22;12800;53.094;8.778;2022-08-21T14:32:53;27.50;46.20
24678;DHT22;12800;53.094;8.778;2022-08-21T14:35:19;27.80;45.60
24678;DHT22;12800;53.094;8.778;2022-08-21T14:37:46;27.90;45.50
24678;DHT22;12800;53.094;8.778;2022-08-21T14:40:13;28.10;45.00
24678;DHT22;12800;53.094;8.778;2022-08-21T14:42:40;28.20;44.50
24678;DHT22;12800;53.094;8.778;2022-08-21T14:45:18;28.30;44.50
24678;DHT22;12800;53.094;8.778;2022-08-21T14:47:45;28.40;44.70
24678;DHT22;12800;53.094;8.778;2022-08-21T14:50:11;28.40;43.90
24678;DHT22;12800;53.094;8.778;2022-08-21T14:52:38;28.30;43.70
24678;DHT22;12800;53.094;8.778;2022-08-21T14:55:05;28.10;43.80
24678;DHT22;12800;53.094;8.778;2022-08-21T14:57:31;28.00;44.00
24678;DHT22;12800;53.094;8.778;2022-08-21T14:59:57;27.90;44.50
24678;DHT22;12800;53.094;8.778;2022-08-21T15:02:25;28.00;45.10
24678;DHT22;12800;53.094;8.778;2022-08-21T15:04:50;28.10;44.50
24678;DHT22;12800;53.094;8.778;2022-08-21T15:07:16;28.10;44.60
24678;DHT22;12800;53.094;8.778;2022-08-21T15:09:42;28.20;44.20
24678;DHT22;12800;53.094;8.778;2022-08-21T15:12:07;28.20;44.00
24678;DHT22;12800;53.094;8.778;2022-08-21T15:14:38;28.10;43.90
24678;DHT22;12800;53.094;8.778;2022-08-21T15:17:07;28.00;43.80
24678;DHT22;12800;53.094;8.778;2022-08-21T15:19:33;27.80;43.80
24678;DHT22;12800;53.094;8.778;2022-08-21T15:21:59;27.80;44.20
24678;DHT22;12800;53.094;8.778;2022-08-21T15:24:25;27.80;44.10
24678;DHT22;12800;53.094;8.778;2022-08-21T15:26:53;27.70;44.30
24678;DHT22;12800;53.094;8.778;2022-08-21T15:29:19;27.50;44.50
24678;DHT22;12800;53.094;8.778;2022-08-21T15:31:54;27.30;44.70
24678;DHT22;12800;53.094;8.778;2022-08-21T15:34:21;27.10;45.00
24678;DHT22;12800;53.094;8.778;2022-08-21T15:36:47;26.90;45.40
24678;DHT22;12800;53.094;8.778;2022-08-21T15:39:13;26.80;45.80
24678;DHT22;12800;53.094;8.778;2022-08-21T15:41:39;26.70;46.10
24678;DHT22;12800;53.094;8.778;2022-08-21T15:44:05;26.60;46.20
24678;DHT22;12800;53.094;8.778;2022-08-21T15:46:31;26.80;46.60
24678;DHT22;12800;53.094;8.778;2022-08-21T15:48:57;27.20;46.10
24678;DHT22;12800;53.094;8.778;2022-08-21T15:51:22;27.50;45.70
24678;DHT22;12800;53.094;8.778;2022-08-21T15:53:48;27.70;45.50
24678;DHT22;12800;53.094;8.778;2022-08-21T15:56:25;27.90;45.30
24678;DHT22;12800;53.094;8.778;2022-08-21T15:58:53;28.00;44.70
24678;DHT22;12800;53.094;8.778;2022-08-21T16:01:20;28.10;44.50
24678;DHT22;12800;53.094;8.778;2022-08-21T16:03:49;28.20;44.00
24678;DHT22;12800;53.094;8.778;2022-08-21T16:06:16;28.40;43.90
24678;DHT22;12800;53.094;8.778;2022-08-21T16:08:41;28.50;43.70
24678;DHT22;12800;53.094;8.778;2022-08-21T16:11:07;28.60;43.50
24678;DHT22;12800;53.094;8.778;2022-08-21T16:13:39;28.70;43.40
24678;DHT22;12800;53.094;8.778;2022-08-21T16:16:09;28.80;42.90
24678;DHT22;12800;53.094;8.778;2022-08-21T16:18:36;28.80;43.00
24678;DHT22;12800;53.094;8.778;2022-08-21T16:21:02;28.90;43.10
24678;DHT22;12800;53.094;8.778;2022-08-21T16:23:28;29.00;42.80
24678;DHT22;12800;53.094;8.778;2022-08-21T16:25:53;29.00;42.40
24678;DHT22;12800;53.094;8.778;2022-08-21T16:28:20;28.90;42.30
24678;DHT22;12800;53.094;8.778;2022-08-21T16:30:48;28.70;42.40
24678;DHT22;12800;53.094;8.778;2022-08-21T16:33:26;28.70;42.60
24678;DHT22;12800;53.094;8.778;2022-08-21T16:35:53;28.70;42.70
24678;DHT22;12800;53.094;8.778;2022-08-21T16:38:18;28.50;42.60
24678;DHT22;12800;53.094;8.778;2022-08-21T16:40:44;28.30;42.70
24678;DHT22;12800;53.094;8.778;2022-08-21T16:43:10;28.10;43.10
24678;DHT22;12800;53.094;8.778;2022-08-21T16:45:36;27.80;43.20
24678;DHT22;12800;53.094;8.778;2022-08-21T16:48:02;27.60;43.20
24678;DHT22;12800;53.094;8.778;2022-08-21T16:50:30;27.30;43.20
24678;DHT22;12800;53.094;8.778;2022-08-21T16:52:56;27.00;43.40
24678;DHT22;12800;53.094;8.778;2022-08-21T16:55:22;26.70;43.70
24678;DHT22;12800;53.094;8.778;2022-08-21T16:57:47;26.50;43.80
24678;DHT22;12800;53.094;8.778;2022-08-21T17:00:13;26.30;44.00
24678;DHT22;12800;53.094;8.778;2022-08-21T17:02:44;26.20;44.20
24678;DHT22;12800;53.094;8.778;2022-08-21T17:05:11;26.00;44.70
24678;DHT22;12800;53.094;8.778;2022-08-21T17:07:37;25.90;45.00
24678;DHT22;12800;53.094;8.778;2022-08-21T17:10:05;25.80;45.40
24678;DHT22;12800;53.094;8.778;2022-08-21T17:12:33;25.80;45.60
24678;DHT22;12800;53.094;8.778;2022-08-21T17:15:04;25.80;45.90